Time;durP1;ratioP1;P1;durP2;ratioP2;P2;SDS_P1;SDS_P2;PMS_P1;PMS_P2;Temp;Humidity;BMP_temperature;BMP_pressure;BME280_temperature;BME280_humidity;BME280_pressure;Samples;Min_cycle;Max_cycle;Signal;HPM_P1;HPM_P2
2020/12/10 00:02:06;;;;;;;31.15;23.25;;;;;;;-2.55;64.69;101187.31;1771152;81;21225;-79
2020/12/10 00:05:13;;;;;;;18.75;9.63;;;;;;;-2.57;64.97;101193.22;1771203;81;21225;-78
2020/12/10 00:08:19;;;;;;;53.50;35.90;;;;;;;-2.60;65.21;101196.90;1771328;81;22644;-78
2020/12/10 00:11:25;;;;;;;17.42;8.65;;;;;;;-2.61;65.44;101203.68;1771302;81;21178;-78
2020/12/10 00:14:30;;;;;;;18.27;11.38;;;;;;;-2.64;65.78;101206.48;1769761;81;21292;-79
2020/12/10 00:17:36;;;;;;;24.27;12.28;;;;;;;-2.63;65.90;101197.53;1770499;81;21319;-79
2020/12/10 00:20:42;;;;;;;18.75;11.45;;;;;;;-2.61;66.14;101195.17;1771361;81;21772;-78
2020/12/10 00:23:48;;;;;;;19.42;7.72;;;;;;;-2.62;66.25;101199.27;1771165;81;21748;-79
2020/12/10 00:26:50;;;;;;;19.57;12.30;;;;;;;-2.63;66.48;101190.37;1762108;81;21398;-79
2020/12/10 00:30:01;;;;;;;21.80;10.32;;;;;;;-2.60;66.55;101192.02;1770848;81;21233;-79
2020/12/10 00:33:03;;;;;;;14.78;8.13;;;;;;;-2.58;66.56;101188.81;1770811;81;21352;-79
2020/12/10 00:36:09;;;;;;;19.10;8.60;;;;;;;-2.53;66.69;101192.14;1770718;81;21307;-79
2020/12/10 00:39:14;;;;;;;25.55;14.33;;;;;;;-2.53;66.81;101177.41;1771360;81;21245;-79
2020/12/10 00:42:21;;;;;;;28.45;13.75;;;;;;;-2.55;67.10;101191.33;1771307;81;21854;-78
2020/12/10 00:45:28;;;;;;;24.37;12.70;;;;;;;-2.59;67.30;101181.25;1771220;81;21335;-79
2020/12/10 00:48:34;;;;;;;22.65;8.90;;;;;;;-2.56;67.49;101174.86;1770039;81;21320;-79
2020/12/10 00:51:40;;;;;;;20.75;9.40;;;;;;;-2.55;67.61;101175.25;1771457;81;21848;-79
2020/12/10 00:54:46;;;;;;;25.45;10.15;;;;;;;-2.53;67.82;101168.51;1771608;81;21296;-79
2020/12/10 00:57:54;;;;;;;18.35;8.68;;;;;;;-2.55;67.92;101160.52;1770691;81;21331;-79
2020/12/10 01:01:00;;;;;;;24.15;15.55;;;;;;;-2.59;68.20;101163.84;1770889;81;21244;-77
2020/12/10 01:04:06;;;;;;;21.55;14.15;;;;;;;-2.61;68.45;101156.80;1771782;81;21303;-78
2020/12/10 01:07:12;;;;;;;44.83;30.92;;;;;;;-2.62;68.63;101173.34;1771225;81;21193;-78
2020/12/10 01:10:17;;;;;;;21.75;9.50;;;;;;;-2.64;68.90;101168.98;1771358;81;21178;-78
2020/12/10 01:13:23;;;;;;;43.28;29.20;;;;;;;-2.66;69.18;101165.52;1771478;81;21854;-78
2020/12/10 01:16:35;;;;;;;15.23;7.70;;;;;;;-2.63;69.18;101172.95;1770804;81;21875;-79
2020/12/10 01:19:40;;;;;;;15.78;8.40;;;;;;;-2.59;69.25;101161.60;1771534;81;21292;-78
2020/12/10 01:22:46;;;;;;;26.35;11.33;;;;;;;-2.57;69.35;101158.40;1771388;81;21182;-78
2020/12/10 01:25:53;;;;;;;23.73;11.18;;;;;;;-2.56;69.46;101165.48;1771264;81;21851;-79
2020/12/10 01:28:57;;;;;;;17.85;11.20;;;;;;;-2.60;69.73;101160.73;1770197;81;21351;-79
2020/12/10 01:32:03;;;;;;;24.63;13.32;;;;;;;-2.64;69.96;101160.48;1770497;81;21311;-79
2020/12/10 01:35:09;;;;;;;23.77;14.47;;;;;;;-2.66;70.13;101171.75;1771195;81;22425;-79
2020/12/10 01:38:15;;;;;;;20.68;12.78;;;;;;;-2.65;70.33;101175.30;1770081;81;21870;-79
2020/12/10 01:41:20;;;;;;;35.55;26.12;;;;;;;-2.66;70.49;101175.77;1769945;81;21291;-80
2020/12/10 01:44:26;;;;;;;29.48;17.25;;;;;;;-2.67;70.62;101178.05;1769938;81;21879;-80
2020/12/10 01:47:34;;;;;;;25.80;14.83;;;;;;;-2.66;70.80;101182.46;1770531;81;21256;-79
2020/12/10 01:50:39;;;;;;;22.42;10.78;;;;;;;-2.66;70.92;101173.56;1771336;81;21297;-78
2020/12/10 01:53:46;;;;;;;28.23;16.37;;;;;;;-2.65;71.00;101169.45;1773605;80;21700;-78
2020/12/10 01:56:52;;;;;;;24.15;15.45;;;;;;;-2.66;71.17;101174.42;1784936;80;21275;-78
2020/12/10 01:59:58;;;;;;;31.82;19.07;;;;;;;-2.66;71.27;101174.42;1783404;80;21228;-78
2020/12/10 02:03:04;;;;;;;28.40;11.65;;;;;;;-2.66;71.37;101171.75;1783972;80;21335;-79
2020/12/10 02:06:11;;;;;;;34.10;24.18;;;;;;;-2.63;71.49;101174.30;1785072;80;21291;-78
2020/12/10 02:09:17;;;;;;;19.50;11.08;;;;;;;-2.61;71.62;101179.09;1784067;80;21854;-78
2020/12/10 02:12:22;;;;;;;27.15;16.15;;;;;;;-2.60;71.71;101163.89;1785025;80;21787;-78
2020/12/10 02:15:27;;;;;;;17.75;9.95;;;;;;;-2.62;71.87;101157.27;1785175;80;21312;-78
2020/12/10 02:18:33;;;;;;;28.23;14.95;;;;;;;-2.60;71.94;101161.21;1784199;80;21324;-78
2020/12/10 02:21:40;;;;;;;20.40;10.08;;;;;;;-2.57;72.01;101158.40;1783574;80;21358;-78
2020/12/10 02:24:46;;;;;;;20.90;9.50;;;;;;;-2.58;72.08;101152.17;1783583;80;21733;-78
2020/12/10 02:27:52;;;;;;;20.97;11.68;;;;;;;-2.55;72.05;101143.11;1784905;80;21291;-78
2020/12/10 02:30:58;;;;;;;34.35;21.00;;;;;;;-2.51;72.01;101138.48;1785789;80;21224;-79
2020/12/10 02:34:12;;;;;;;25.90;16.17;;;;;;;-2.47;71.97;101153.00;1783451;80;21310;-78
2020/12/10 02:37:16;;;;;;;22.65;11.78;;;;;;;-2.48;71.96;101151.74;1784807;80;21823;-78
2020/12/10 02:40:22;;;;;;;24.72;9.70;;;;;;;-2.48;72.01;101145.91;1783505;80;21288;-78
2020/12/10 02:43:29;;;;;;;20.80;9.48;;;;;;;-2.46;72.01;101157.41;1785128;80;21292;-78
2020/12/10 02:46:34;;;;;;;20.25;9.85;;;;;;;-2.45;72.04;101160.48;1783622;80;21232;-78
2020/12/10 02:49:41;;;;;;;25.40;14.20;;;;;;;-2.41;71.89;101149.16;1783416;80;21878;-78
2020/12/10 02:52:47;;;;;;;28.35;16.25;;;;;;;-2.42;71.74;101145.61;1785040;80;21287;-78
2020/12/10 02:55:53;;;;;;;36.30;17.80;;;;;;;-2.43;71.74;101147.90;1775780;80;21379;-78
2020/12/10 02:58:59;;;;;;;24.63;10.08;;;;;;;-2.44;71.72;101147.51;1771193;81;21296;-78
2020/12/10 03:02:04;;;;;;;17.10;8.38;;;;;;;-2.43;71.57;101139.86;1771055;81;21299;-78
2020/12/10 03:05:12;;;;;;;25.57;15.00;;;;;;;-2.42;71.55;101135.37;1772333;81;21257;-78
2020/12/10 03:08:19;;;;;;;39.83;27.77;;;;;;;-2.46;71.56;101146.69;1771515;81;21228;-78
2020/12/10 03:11:24;;;;;;;17.55;10.20;;;;;;;-2.46;71.57;101143.15;1771257;81;21284;-78
2020/12/10 03:14:31;;;;;;;22.70;11.48;;;;;;;-2.42;71.40;101136.70;1771279;81;21842;-79
2020/12/10 03:17:36;;;;;;;28.10;11.95;;;;;;;-2.42;71.28;101144.27;1771379;81;21177;-79
2020/12/10 03:20:42;;;;;;;23.27;8.98;;;;;;;-2.43;71.30;101141.67;1769973;81;21284;-79
2020/12/10 03:23:48;;;;;;;25.40;16.93;;;;;;;-2.42;71.28;101130.01;1771322;81;21720;-78
2020/12/10 03:26:53;;;;;;;38.60;26.15;;;;;;;-2.41;71.24;101127.25;1771252;81;21284;-78
2020/12/10 03:29:59;;;;;;;22.87;12.68;;;;;;;-2.42;71.21;101119.29;1770657;81;21323;-78
2020/12/10 03:33:05;;;;;;;35.45;24.35;;;;;;;-2.48;71.37;101117.78;1769829;81;21292;-78
2020/12/10 03:36:12;;;;;;;33.40;25.37;;;;;;;-2.51;71.57;101121.94;1771288;81;21292;-78
2020/12/10 03:39:17;;;;;;;30.70;15.43;;;;;;;-2.51;71.70;101128.63;1771179;81;21292;-79
2020/12/10 03:42:24;;;;;;;34.33;22.98;;;;;;;-2.52;71.75;101123.36;1771267;81;21415;-79
2020/12/10 03:45:30;;;;;;;22.00;11.03;;;;;;;-2.50;71.68;101129.50;1771240;81;21701;-79
2020/12/10 03:48:35;;;;;;;19.52;11.00;;;;;;;-2.51;71.63;101123.27;1771176;81;21374;-79
2020/12/10 03:51:41;;;;;;;30.15;15.30;;;;;;;-2.50;71.66;101125.00;1771242;81;21351;-79
2020/12/10 03:54:47;;;;;;;23.20;11.22;;;;;;;-2.45;71.49;101134.16;1771245;81;21855;-79
2020/12/10 03:57:53;;;;;;;33.48;22.30;;;;;;;-2.43;71.33;101117.56;1769961;80;21910;-78
2020/12/10 04:00:59;;;;;;;39.38;20.72;;;;;;;-2.47;71.30;101112.81;1770146;81;21189;-78
2020/12/10 04:04:04;;;;;;;23.62;13.75;;;;;;;-2.46;71.37;101123.92;1771051;81;21199;-78
2020/12/10 04:07:10;;;;;;;31.40;22.67;;;;;;;-2.46;71.29;101134.64;1771483;81;21705;-79
2020/12/10 04:10:15;;;;;;;44.75;34.38;;;;;;;-2.45;71.34;101137.70;1770893;81;21304;-79
2020/12/10 04:13:21;;;;;;;28.92;20.17;;;;;;;-2.43;71.32;101133.16;1771218;81;21284;-79
2020/12/10 04:16:26;;;;;;;47.38;37.40;;;;;;;-2.42;71.28;101126.85;1771024;81;21221;-78
2020/12/10 04:19:31;;;;;;;27.85;17.92;;;;;;;-2.42;71.26;101133.55;1770904;81;21332;-80
2020/12/10 04:22:37;;;;;;;53.98;39.48;;;;;;;-2.44;71.26;101152.86;1769944;81;21288;-79
2020/12/10 04:25:44;;;;;;;27.45;11.10;;;;;;;-2.49;71.48;101140.61;1769807;81;21832;-79
2020/12/10 04:28:50;;;;;;;33.05;19.50;;;;;;;-2.50;71.61;101141.08;1771190;81;21233;-79
2020/12/10 04:31:56;;;;;;;19.80;11.50;;;;;;;-2.47;71.63;101139.61;1769838;81;21273;-79
2020/12/10 04:35:02;;;;;;;39.95;28.77;;;;;;;-2.44;71.52;101131.44;1770755;81;21319;-79
2020/12/10 04:38:07;;;;;;;41.68;23.87;;;;;;;-2.43;71.54;101142.54;1770249;81;21347;-79
2020/12/10 04:41:12;;;;;;;55.50;35.98;;;;;;;-2.45;71.50;101141.73;1768267;79;21264;-79
2020/12/10 04:44:18;;;;;;;55.30;37.23;;;;;;;-2.44;71.55;101139.47;1760243;81;21339;-79
2020/12/10 04:47:24;;;;;;;69.42;54.20;;;;;;;-2.43;71.55;101143.88;1759896;81;21312;-78
2020/12/10 04:50:34;;;;;;;31.20;15.18;;;;;;;-2.46;71.59;101153.39;1758136;81;21343;-78
2020/12/10 04:53:39;;;;;;;46.05;34.85;;;;;;;-2.45;71.65;101155.59;1760495;81;21273;-78
2020/12/10 04:56:45;;;;;;;51.23;37.35;;;;;;;-2.47;71.72;101146.30;1759645;81;21220;-78
2020/12/10 04:59:50;;;;;;;45.40;31.52;;;;;;;-2.46;71.77;101145.36;1771530;81;21303;-79
2020/12/10 05:02:56;;;;;;;60.10;36.85;;;;;;;-2.46;71.79;101144.02;1773531;81;21181;-79
2020/12/10 05:06:02;;;;;;;50.60;35.28;;;;;;;-2.44;71.87;101132.77;1772416;81;21259;-80
2020/12/10 05:09:17;;;;;;;58.75;33.65;;;;;;;-2.44;71.96;101130.56;1774466;81;21296;-78
2020/12/10 05:12:25;;;;;;;84.28;53.87;;;;;;;-2.45;72.16;101134.16;1773927;81;21347;-78
2020/12/10 05:15:42;;;;;;;67.62;49.48;;;;;;;-2.47;72.25;101132.91;1773451;81;21229;-78
2020/12/10 05:18:47;;;;;;;100.55;80.17;;;;;;;-2.47;72.33;101136.06;1774502;81;21165;-78
2020/12/10 05:22:10;;;;;;;64.12;49.85;;;;;;;-2.49;72.46;101126.77;1771890;81;21157;-78
2020/12/10 05:25:16;;;;;;;48.40;29.30;;;;;;;-2.50;72.55;101134.38;1774317;81;21819;-78
2020/12/10 05:28:21;;;;;;;49.00;32.13;;;;;;;-2.53;72.66;101129.19;1773884;81;21193;-79
2020/12/10 05:31:28;;;;;;;37.10;26.35;;;;;;;-2.55;72.81;101131.05;1785100;79;21305;-78
2020/12/10 05:34:33;;;;;;;22.77;13.75;;;;;;;-2.50;72.82;101134.38;1799741;79;21302;-78
2020/12/10 05:37:39;;;;;;;20.82;13.43;;;;;;;-2.47;72.65;101133.38;1791858;79;21807;-77
2020/12/10 05:40:45;;;;;;;32.78;23.02;;;;;;;-2.47;72.61;101134.25;1792027;79;21251;-77
2020/12/10 05:43:51;;;;;;;25.57;14.83;;;;;;;-2.42;72.60;101130.88;1794870;79;21694;-78
2020/12/10 05:47:11;;;;;;;20.85;10.32;;;;;;;-2.40;72.56;101132.13;1802312;79;21246;-78
2020/12/10 05:50:24;;;;;;;22.02;10.45;;;;;;;-2.40;72.62;101135.70;1794947;79;21251;-79
2020/12/10 05:53:27;;;;;;;30.70;19.92;;;;;;;-2.41;72.56;101128.58;1796122;79;21371;-79
2020/12/10 05:56:33;;;;;;;22.17;13.55;;;;;;;-2.41;72.61;101136.62;1793793;79;21271;-78
2020/12/10 05:59:39;;;;;;;229.45;112.92;;;;;;;-2.44;72.77;101135.92;1775080;79;21192;-78
2020/12/10 06:02:45;;;;;;;177.78;74.40;;;;;;;-2.44;72.94;101135.45;1798666;79;21302;-78
2020/12/10 06:05:54;;;;;;;26.85;15.05;;;;;;;-2.43;72.91;101130.48;1779410;79;21898;-78
2020/12/10 06:09:00;;;;;;;74.55;55.17;;;;;;;-2.39;72.95;101125.37;1802448;79;21152;-79
2020/12/10 06:12:12;;;;;;;42.27;26.27;;;;;;;-2.39;72.94;101133.42;1790631;78;21334;-80
2020/12/10 06:15:19;;;;;;;44.83;35.43;;;;;;;-2.39;73.02;101116.00;1796670;78;21303;-79
2020/12/10 06:18:26;;;;;;;48.35;33.28;;;;;;;-2.38;73.12;101112.38;1796034;79;21224;-79
2020/12/10 06:21:51;;;;;;;19.80;12.98;;;;;;;-2.36;73.16;101109.13;1793025;78;21777;-79
2020/12/10 06:25:38;;;;;;;31.68;24.23;;;;;;;-2.29;73.14;101107.52;1793529;78;21752;-80
2020/12/10 06:28:49;;;;;;;33.88;24.35;;;;;;;-2.23;72.95;101107.20;1791107;79;21196;-80
2020/12/10 06:32:19;;;;;;;24.40;16.85;;;;;;;-2.19;72.82;101109.66;1801003;78;21191;-80
2020/12/10 06:35:43;;;;;;;62.10;47.20;;;;;;;-2.15;72.92;101102.34;1786382;78;21299;-79
2020/12/10 06:38:55;;;;;;;37.30;27.25;;;;;;;-2.09;72.79;101111.41;1798782;78;21180;-79
2020/12/10 06:42:09;;;;;;;49.98;36.23;;;;;;;-2.09;72.79;101109.59;1800464;79;21183;-80
2020/12/10 06:45:37;;;;;;;49.93;34.92;;;;;;;-2.03;72.73;101119.61;1791237;78;21913;-80
2020/12/10 06:48:50;;;;;;;52.50;36.77;;;;;;;-1.98;72.60;101108.19;1798225;78;21192;-80
2020/12/10 06:52:22;;;;;;;63.15;48.38;;;;;;;-1.94;72.44;101121.36;1796580;78;21951;-79
2020/12/10 06:55:28;;;;;;;38.80;24.50;;;;;;;-1.94;72.35;101103.06;1797828;78;21294;-79
2020/12/10 06:58:49;;;;;;;21.70;13.70;;;;;;;-1.94;72.53;101103.06;1798288;78;21201;-79
2020/12/10 07:01:55;;;;;;;23.40;14.68;;;;;;;-1.90;72.48;101110.02;1801579;78;21297;-79
2020/12/10 07:05:01;;;;;;;47.17;31.12;;;;;;;-1.83;72.40;101115.00;1793950;79;21544;-79
2020/12/10 07:08:18;;;;;;;28.77;17.12;;;;;;;-1.76;72.21;101121.39;1792909;78;21311;-78
2020/12/10 07:11:37;;;;;;;50.30;36.83;;;;;;;-1.78;72.15;101119.27;1794204;78;21882;-78
2020/12/10 07:14:47;;;;;;;50.57;36.10;;;;;;;-1.81;72.45;101118.47;1791929;78;22253;-78
2020/12/10 07:18:02;;;;;;;47.58;35.43;;;;;;;-1.81;72.54;101108.21;1796804;78;22905;-78
2020/12/10 07:21:09;;;;;;;43.98;30.60;;;;;;;-1.88;72.80;101110.34;1793134;79;21327;-78
2020/12/10 07:24:18;;;;;;;45.12;34.88;;;;;;;-1.91;73.04;101110.49;1774935;79;21915;-79
2020/12/10 07:27:27;;;;;;;56.98;44.73;;;;;;;-1.91;73.16;101109.62;1797585;78;21615;-79
2020/12/10 07:30:36;;;;;;;54.27;40.15;;;;;;;-1.85;73.21;101117.36;1798211;78;21279;-78
2020/12/10 07:33:45;;;;;;;42.30;28.60;;;;;;;-1.74;73.01;101128.87;1794857;78;21317;-79
2020/12/10 07:37:00;;;;;;;38.25;27.35;;;;;;;-1.66;72.63;101130.22;1795274;78;21902;-78
2020/12/10 07:40:26;;;;;;;46.88;32.23;;;;;;;-1.61;72.38;101122.80;1796100;78;21298;-79
2020/12/10 07:43:34;;;;;;;33.42;18.85;;;;;;;-1.60;72.33;101119.64;1737719;80;21369;-79
2020/12/10 07:46:44;;;;;;;21.02;11.85;;;;;;;-1.57;72.38;101130.23;1744184;80;21338;-79
2020/12/10 07:49:52;;;;;;;30.68;17.67;;;;;;;-1.56;72.62;101131.95;1737273;81;21299;-78
2020/12/10 07:53:08;;;;;;;36.77;20.75;;;;;;;-1.55;72.97;101129.70;1737974;80;21785;-79
2020/12/10 07:56:16;;;;;;;41.65;28.30;;;;;;;-1.53;73.35;101144.36;1738447;80;21894;-79
2020/12/10 07:59:25;;;;;;;42.60;29.65;;;;;;;-1.52;73.69;101142.06;1726412;80;21346;-79
2020/12/10 08:03:00;;;;;;;37.70;25.25;;;;;;;-1.50;73.85;101141.05;1736945;80;21305;-79
2020/12/10 08:06:18;;;;;;;48.85;31.87;;;;;;;-1.49;73.96;101130.70;1739758;80;21314;-79
2020/12/10 08:09:23;;;;;;;31.65;18.98;;;;;;;-1.45;74.03;101130.95;1744608;80;21354;-79
2020/12/10 08:12:29;;;;;;;54.60;36.45;;;;;;;-1.41;74.32;101120.45;1738855;80;21314;-79
2020/12/10 08:15:37;;;;;;;35.55;24.63;;;;;;;-1.38;74.84;101124.30;1736483;80;21219;-78
2020/12/10 08:18:46;;;;;;;38.05;25.20;;;;;;;-1.41;75.20;101123.14;1735680;81;21696;-79
2020/12/10 08:21:53;;;;;;;32.58;20.52;;;;;;;-1.43;75.60;101116.96;1736851;80;21314;-79
2020/12/10 08:25:28;;;;;;;52.62;36.80;;;;;;;-1.42;75.78;101113.33;1739033;80;21341;-79
2020/12/10 08:28:47;;;;;;;50.35;35.73;;;;;;;-1.39;76.02;101122.56;1729941;80;21213;-80
2020/12/10 08:31:56;;;;;;;48.87;34.23;;;;;;;-1.35;76.04;101108.05;1731428;80;21228;-78
2020/12/10 08:35:14;;;;;;;36.85;26.68;;;;;;;-1.31;76.17;101103.39;1726449;80;21861;-78
2020/12/10 08:38:23;;;;;;;26.95;16.35;;;;;;;-1.27;76.24;101098.70;1727919;80;21322;-79
2020/12/10 08:41:42;;;;;;;51.95;34.78;;;;;;;-1.26;76.29;101098.64;1733193;80;21217;-80
2020/12/10 08:44:54;;;;;;;44.70;27.98;;;;;;;-1.22;76.33;101102.91;1714926;81;21280;-80
2020/12/10 08:48:04;;;;;;;29.10;17.50;;;;;;;-1.23;76.25;101096.25;1717810;81;21287;-80
2020/12/10 08:51:15;;;;;;;40.23;25.85;;;;;;;-1.24;76.32;101094.52;1713212;81;21338;-79
2020/12/10 08:54:34;;;;;;;54.55;42.73;;;;;;;-1.20;76.27;101086.22;1719969;80;21382;-79
2020/12/10 08:57:58;;;;;;;32.95;18.37;;;;;;;-1.14;76.11;101091.25;1721664;80;21347;-80
2020/12/10 09:01:06;;;;;;;59.58;41.75;;;;;;;-1.09;75.93;101097.72;1725684;80;21402;-81
2020/12/10 09:04:36;;;;;;;;;;;;;;;;;;;;;
2020/12/10 09:07:30;;;;;;;23.60;12.65;;;;;;;-1.02;75.71;101088.88;1721343;80;22514;-80
2020/12/10 09:10:38;;;;;;;36.95;27.67;;;;;;;-0.98;75.69;101089.97;1729118;80;22199;-79
2020/12/10 09:13:45;;;;;;;28.02;18.23;;;;;;;-0.93;75.54;101085.20;1722038;80;21366;-80
2020/12/10 09:16:50;;;;;;;30.92;12.95;;;;;;;-0.93;75.45;101087.89;1723157;80;21239;-79
2020/12/10 09:20:06;;;;;;;28.23;16.65;;;;;;;-0.93;75.58;101081.18;1722990;80;21311;-79
2020/12/10 09:23:13;;;;;;;39.10;22.05;;;;;;;-0.88;75.63;101080.45;1721538;80;22576;-79
2020/12/10 09:26:23;;;;;;;35.83;22.13;;;;;;;-0.86;75.55;101079.88;1722087;80;21208;-81
2020/12/10 09:29:33;;;;;;;24.20;13.53;;;;;;;-0.85;75.74;101080.73;1725493;82;21888;-78
2020/12/10 09:32:42;;;;;;;32.05;16.07;;;;;;;-0.87;76.03;101074.12;1723796;80;22417;-78
2020/12/10 09:35:50;;;;;;;31.17;18.07;;;;;;;-0.81;76.08;101060.81;1724502;80;21283;-78
2020/12/10 09:38:57;;;;;;;25.62;11.97;;;;;;;-0.74;76.02;101066.25;1725316;80;21768;-79
2020/12/10 09:42:03;;;;;;;28.65;15.60;;;;;;;-0.64;75.90;101059.89;1726289;80;21228;-80
2020/12/10 09:45:09;;;;;;;37.28;14.38;;;;;;;-0.55;75.67;101057.55;1746077;81;21349;-79
2020/12/10 09:48:16;;;;;;;24.20;13.43;;;;;;;-0.44;75.19;101063.64;1715904;82;21315;-79
2020/12/10 09:57:45;;;;;;;27.58;16.87;;;;;;;-0.28;74.61;101040.80;1693405;83;21230;-80
2020/12/10 10:00:53;;;;;;;34.15;23.57;;;;;;;-0.23;74.33;101041.87;1694280;83;21344;-78
2020/12/10 10:03:58;;;;;;;36.40;17.92;;;;;;;-0.26;74.31;101037.52;1691533;83;21262;-78
2020/12/10 10:07:06;;;;;;;29.10;15.72;;;;;;;-0.27;74.41;101035.31;1690543;84;21237;-78
2020/12/10 10:10:12;;;;;;;33.85;20.25;;;;;;;-0.24;74.49;101040.11;1693282;83;21323;-79
2020/12/10 10:13:19;;;;;;;26.20;13.88;;;;;;;-0.20;74.46;101031.78;1689485;83;21246;-79
2020/12/10 10:16:25;;;;;;;35.75;23.67;;;;;;;-0.15;74.62;101036.89;1688245;83;21236;-79
2020/12/10 10:19:32;;;;;;;38.00;24.80;;;;;;;-0.08;74.56;101027.52;1691093;83;21808;-79
2020/12/10 10:22:44;;;;;;;37.83;26.42;;;;;;;-0.06;74.70;101014.34;1691727;83;21374;-78
2020/12/10 10:25:49;;;;;;;30.50;16.48;;;;;;;0.01;74.83;101022.94;1694517;83;21362;-80
2020/12/10 10:28:57;;;;;;;28.75;19.52;;;;;;;0.06;75.02;101020.83;1692340;83;21228;-79
2020/12/10 10:32:09;;;;;;;35.90;15.58;;;;;;;0.15;75.00;101010.00;1669320;83;21224;-79
2020/12/10 10:35:16;;;;;;;47.43;30.25;;;;;;;0.22;75.00;101014.91;1714744;81;21204;-81
2020/12/10 10:38:24;;;;;;;26.27;16.85;;;;;;;0.29;75.05;101015.41;1718438;82;21800;-79
2020/12/10 10:41:37;;;;;;;25.55;12.33;;;;;;;0.35;74.99;101019.55;1720232;82;21304;-78
2020/12/10 10:44:41;;;;;;;24.32;11.48;;;;;;;0.38;75.02;101016.68;1711479;82;21218;-78
2020/12/10 10:47:47;;;;;;;28.70;15.75;;;;;;;0.39;75.16;101013.02;1702689;83;21249;-79
2020/12/10 10:50:54;;;;;;;38.15;19.48;;;;;;;0.40;75.27;101006.67;1709037;82;21284;-80
2020/12/10 10:54:05;;;;;;;33.85;23.12;;;;;;;0.43;75.40;101015.92;1699657;83;21230;-78
2020/12/10 10:57:14;;;;;;;37.28;22.25;;;;;;;0.50;75.39;101011.39;1700247;83;21213;-79
2020/12/10 11:00:20;;;;;;;30.02;16.20;;;;;;;0.57;75.48;101021.31;1685268;84;21331;-79
2020/12/10 11:03:29;;;;;;;31.93;19.90;;;;;;;0.63;75.45;101022.27;1687020;84;21906;-79
2020/12/10 11:06:36;;;;;;;35.92;21.93;;;;;;;0.72;75.35;101022.18;1682020;84;22022;-79
2020/12/10 11:09:41;;;;;;;46.50;32.67;;;;;;;0.81;75.33;101025.64;1710688;82;21334;-78
2020/12/10 11:12:47;;;;;;;33.25;19.15;;;;;;;0.87;75.37;101014.95;1701204;83;21386;-78
2020/12/10 11:15:57;;;;;;;32.63;20.40;;;;;;;0.91;75.51;101016.50;1699938;83;21323;-79
2020/12/10 11:19:05;;;;;;;32.83;16.62;;;;;;;0.94;75.55;101013.59;1697646;83;21300;-79
2020/12/10 11:22:15;;;;;;;42.53;27.80;;;;;;;0.96;75.58;101024.67;1682355;83;21879;-79
2020/12/10 11:25:22;;;;;;;34.13;17.67;;;;;;;1.00;75.53;101014.56;1698605;83;21269;-79
2020/12/10 11:28:28;;;;;;;34.10;23.30;;;;;;;1.00;75.53;101014.08;1697389;83;21891;-79
2020/12/10 11:31:36;;;;;;;35.50;24.40;;;;;;;1.04;75.48;101020.64;1697673;83;21912;-79
2020/12/10 11:34:46;;;;;;;33.35;17.02;;;;;;;1.07;75.38;101017.23;1697783;83;21383;-79
2020/12/10 11:37:57;;;;;;;30.43;15.78;;;;;;;1.11;75.28;101009.34;1698430;83;22587;-79
2020/12/10 11:41:05;;;;;;;32.03;19.05;;;;;;;1.17;75.05;101011.63;1697062;83;21265;-79
2020/12/10 11:44:07;;;;;;;32.17;19.23;;;;;;;1.22;74.85;100992.47;1698006;83;21318;-78
2020/12/10 11:47:22;;;;;;;32.25;17.52;;;;;;;1.26;74.70;100990.83;1711256;82;21466;-79
2020/12/10 11:50:31;;;;;;;24.12;14.23;;;;;;;1.28;74.44;100997.00;1724702;80;21264;-80
2020/12/10 11:53:45;;;;;;;24.52;13.22;;;;;;;1.30;74.29;100990.15;1725826;82;21295;-80
2020/12/10 11:56:53;;;;;;;36.70;18.30;;;;;;;1.30;74.23;100980.72;1731298;80;21299;-80
2020/12/10 12:00:25;;;;;;;32.48;22.37;;;;;;;1.27;74.10;100989.89;1730686;80;21480;-80
2020/12/10 12:03:44;;;;;;;34.30;22.40;;;;;;;1.24;74.11;101002.20;1727505;80;21342;-80
2020/12/10 12:06:50;;;;;;;29.27;19.80;;;;;;;1.23;74.17;101004.52;1725173;80;21371;-80
2020/12/10 12:09:59;;;;;;;28.35;18.62;;;;;;;1.25;74.16;101005.27;1725348;80;21165;-79
2020/12/10 12:13:08;;;;;;;52.08;41.15;;;;;;;1.27;74.15;101007.41;1727290;80;21240;-81
2020/12/10 12:16:17;;;;;;;33.75;20.60;;;;;;;1.30;74.13;101014.89;1727531;80;21236;-79
2020/12/10 12:19:32;;;;;;;33.18;17.75;;;;;;;1.29;74.10;101022.12;1725350;82;21393;-79
2020/12/10 12:22:41;;;;;;;26.60;18.40;;;;;;;1.31;74.02;101026.05;1725003;80;21978;-80
2020/12/10 12:25:53;;;;;;;25.95;16.48;;;;;;;1.33;73.75;101019.61;1723413;82;21380;-79
2020/12/10 12:29:00;;;;;;;30.60;21.12;;;;;;;1.33;73.75;101019.61;1712963;82;21184;-80
2020/12/10 12:32:15;;;;;;;38.15;28.30;;;;;;;1.36;73.77;101024.78;1725300;82;22352;-79
2020/12/10 12:35:22;;;;;;;35.08;23.80;;;;;;;1.38;73.54;101030.95;1720727;82;21506;-80
2020/12/10 12:38:30;;;;;;;34.53;16.57;;;;;;;1.40;73.38;101034.41;1723792;80;21351;-80
2020/12/10 12:41:39;;;;;;;26.30;14.78;;;;;;;1.41;73.03;101033.91;1719221;82;21149;-80
2020/12/10 12:44:47;;;;;;;55.80;33.55;;;;;;;1.41;72.84;101035.27;1729700;80;21318;-80
2020/12/10 12:47:54;;;;;;;63.95;51.40;;;;;;;1.38;72.86;101031.44;1738990;81;21229;-80
2020/12/10 12:51:03;;;;;;;27.48;17.23;;;;;;;1.39;72.89;101031.81;1750848;81;22723;-79
2020/12/10 12:54:10;;;;;;;35.25;26.17;;;;;;;1.39;72.85;101043.46;1712178;82;21381;-79
2020/12/10 12:57:15;;;;;;;34.92;25.60;;;;;;;1.42;72.78;101034.33;1689423;84;21394;-80
2020/12/10 13:00:25;;;;;;;42.35;31.42;;;;;;;1.44;72.67;101025.16;1695115;83;21352;-79
2020/12/10 13:03:33;;;;;;;25.35;15.53;;;;;;;1.48;72.55;101025.83;1691680;83;21417;-79
2020/12/10 13:06:42;;;;;;;34.73;21.15;;;;;;;1.49;72.38;101032.45;1696220;83;21289;-80
2020/12/10 13:09:56;;;;;;;23.42;13.30;;;;;;;1.50;72.38;101033.31;1688061;83;21330;-79
2020/12/10 13:13:05;;;;;;;24.75;16.82;;;;;;;1.54;72.28;101042.94;1690359;83;21334;-79
2020/12/10 13:16:11;;;;;;;27.35;18.80;;;;;;;1.60;72.08;101044.36;1694941;83;21326;-77
2020/12/10 13:19:20;;;;;;;21.73;13.03;;;;;;;1.62;71.86;101047.84;1686932;84;21931;-80
2020/12/10 13:22:25;;;;;;;25.85;16.35;;;;;;;1.65;71.62;101044.95;1691713;83;21208;-79
2020/12/10 13:25:30;;;;;;;32.25;24.27;;;;;;;1.66;71.39;101037.23;1693082;83;21386;-79
2020/12/10 13:28:35;;;;;;;22.02;12.43;;;;;;;1.66;71.21;101038.58;1690177;83;21247;-79
2020/12/10 13:31:43;;;;;;;38.65;28.27;;;;;;;1.66;71.09;101034.54;1691234;83;21334;-80
2020/12/10 13:34:50;;;;;;;33.20;22.10;;;;;;;1.67;71.01;101040.31;1691064;83;21224;-80
2020/12/10 13:37:55;;;;;;;23.55;15.23;;;;;;;1.68;70.87;101042.03;1690934;83;21604;-79
2020/12/10 13:41:01;;;;;;;39.75;28.42;;;;;;;1.70;70.79;101040.98;1695759;83;21309;-79
2020/12/10 13:44:07;;;;;;;29.57;19.07;;;;;;;1.73;70.70;101043.45;1693845;83;21319;-79
2020/12/10 13:47:13;;;;;;;41.02;35.00;;;;;;;1.76;70.56;101045.95;1696348;83;21346;-79
2020/12/10 13:50:19;;;;;;;30.12;19.60;;;;;;;1.77;70.54;101039.59;1711726;83;21342;-79
2020/12/10 13:53:24;;;;;;;30.27;20.52;;;;;;;1.79;70.48;101033.63;1705740;83;22557;-79
2020/12/10 13:56:29;;;;;;;20.10;12.70;;;;;;;1.81;70.40;101028.11;1702447;83;21371;-79
2020/12/10 13:59:34;;;;;;;19.17;12.47;;;;;;;1.81;70.26;101024.56;1703007;83;21390;-79
2020/12/10 14:02:41;;;;;;;21.70;12.15;;;;;;;1.82;70.33;101034.38;1706043;83;21204;-79
2020/12/10 14:05:46;;;;;;;27.25;16.52;;;;;;;1.84;70.31;101035.16;1702137;83;22536;-79
2020/12/10 14:08:53;;;;;;;36.65;21.80;;;;;;;1.88;70.28;101029.91;1680677;84;21988;-79
2020/12/10 14:12:00;;;;;;;21.20;10.85;;;;;;;1.89;70.21;101031.17;1682777;84;21179;-79
2020/12/10 14:15:06;;;;;;;38.15;28.67;;;;;;;1.88;70.26;101023.16;1728539;82;21244;-80
2020/12/10 14:18:12;;;;;;;27.40;19.35;;;;;;;1.88;70.38;101030.77;1732418;80;21275;-78
2020/12/10 14:21:19;;;;;;;37.88;31.02;;;;;;;1.90;70.48;101022.59;1728533;82;21918;-79
2020/12/10 14:24:25;;;;;;;36.30;24.15;;;;;;;1.93;70.60;101025.06;1723172;82;21381;-79
2020/12/10 14:27:31;;;;;;;33.80;26.65;;;;;;;1.96;70.65;101018.12;1718188;83;21906;-79
2020/12/10 14:30:36;;;;;;;25.32;16.02;;;;;;;1.96;70.87;101024.86;1733214;82;21311;-79